createdAt,value
2023-03-17T00:01:56.004Z,93.40
2023-03-17T00:04:24.990Z,93.40
2023-03-17T00:06:53.030Z,93.20
2023-03-17T00:09:21.133Z,93.10
2023-03-17T00:11:49.079Z,93.00
2023-03-17T00:14:16.845Z,92.90
2023-03-17T00:16:48.477Z,92.70
2023-03-17T00:19:33.089Z,92.60
2023-03-17T00:22:01.447Z,92.50
2023-03-17T00:24:29.492Z,92.50
2023-03-17T00:26:56.554Z,92.50
2023-03-17T00:29:24.028Z,92.40
2023-03-17T00:31:51.219Z,92.20
2023-03-17T00:34:19.455Z,92.10
2023-03-17T00:36:51.377Z,92.10
2023-03-17T00:39:19.063Z,91.90
2023-03-17T00:44:12.427Z,92.00
2023-03-17T00:46:41.486Z,92.00
2023-03-17T00:51:44.828Z,91.90
2023-03-17T00:54:12.930Z,91.80
2023-03-17T00:56:41.656Z,91.80
2023-03-17T00:59:30.026Z,91.80
2023-03-17T01:01:57.427Z,91.90
2023-03-17T01:04:24.407Z,91.80
2023-03-17T01:06:52.369Z,91.60
2023-03-17T01:09:24.226Z,91.30
2023-03-17T01:11:51.470Z,91.30
2023-03-17T01:14:18.578Z,91.30
2023-03-17T01:16:45.597Z,91.20
2023-03-17T01:19:13.620Z,91.20
2023-03-17T01:21:40.824Z,91.00
2023-03-17T01:24:08.482Z,91.00
2023-03-17T01:26:35.445Z,90.90
2023-03-17T01:29:02.435Z,90.90
2023-03-17T01:31:29.573Z,90.70
2023-03-17T01:33:56.969Z,90.70
2023-03-17T01:36:23.966Z,90.50
2023-03-17T01:38:51.098Z,90.40
2023-03-17T01:41:19.184Z,90.40
2023-03-17T01:43:46.445Z,90.30
2023-03-17T01:46:27.990Z,90.30
2023-03-17T01:49:26.635Z,90.40
2023-03-17T01:52:01.044Z,90.50
2023-03-17T01:54:50.603Z,90.50
2023-03-17T01:57:32.744Z,90.60
2023-03-17T02:00:09.644Z,90.60
2023-03-17T02:02:39.576Z,90.50
2023-03-17T02:05:11.487Z,90.50
2023-03-17T02:07:38.550Z,90.60
2023-03-17T02:10:06.780Z,90.60
2023-03-17T02:12:35.121Z,90.60
2023-03-17T02:15:03.350Z,90.50
2023-03-17T02:17:30.405Z,90.40
2023-03-17T02:20:11.764Z,90.20
2023-03-17T02:22:38.645Z,90.30
2023-03-17T02:25:06.510Z,90.40
2023-03-17T02:27:37.614Z,90.40
2023-03-17T02:30:07.508Z,90.30
2023-03-17T02:32:38.925Z,90.30
2023-03-17T02:35:07.329Z,90.40
2023-03-17T02:37:34.758Z,90.50
2023-03-17T02:40:02.700Z,90.60
2023-03-17T02:42:29.767Z,90.70
2023-03-17T02:44:56.777Z,90.60
2023-03-17T02:47:23.832Z,90.50
2023-03-17T02:49:51.270Z,90.50
2023-03-17T02:52:18.204Z,90.40
2023-03-17T02:54:45.282Z,90.40
2023-03-17T02:57:12.321Z,90.50
2023-03-17T02:59:39.274Z,90.50
2023-03-17T03:02:06.387Z,90.70
2023-03-17T03:04:33.368Z,90.80
2023-03-17T03:07:00.433Z,90.80
2023-03-17T03:09:27.522Z,90.80
2023-03-17T03:11:54.451Z,90.80
2023-03-17T03:14:21.813Z,90.80
2023-03-17T03:16:49.850Z,90.90
2023-03-17T03:19:16.822Z,91.00
2023-03-17T03:21:43.724Z,91.10
2023-03-17T03:24:11.096Z,91.20
2023-03-17T03:26:38.342Z,91.20
2023-03-17T03:29:05.647Z,91.30
2023-03-17T03:31:32.606Z,91.40
2023-03-17T03:33:59.701Z,91.50
2023-03-17T03:36:27.567Z,91.50
2023-03-17T03:38:54.596Z,91.70
2023-03-17T03:41:22.138Z,91.80
2023-03-17T03:43:49.170Z,91.80
2023-03-17T03:46:16.731Z,91.80
2023-03-17T03:48:43.789Z,91.80
2023-03-17T03:51:10.956Z,91.80
2023-03-17T03:53:37.911Z,91.90
2023-03-17T03:56:05.309Z,91.80
2023-03-17T03:58:32.215Z,91.90
2023-03-17T04:00:59.262Z,91.80
2023-03-17T04:03:27.079Z,91.90
2023-03-17T04:05:54.015Z,91.80
2023-03-17T04:08:21.067Z,91.90
2023-03-17T04:10:47.939Z,91.80
2023-03-17T04:13:15.501Z,91.80
2023-03-17T04:15:42.608Z,91.70
2023-03-17T04:18:09.794Z,91.70
2023-03-17T04:20:36.824Z,91.70
2023-03-17T04:23:04.076Z,91.70
2023-03-17T04:25:31.563Z,91.80
2023-03-17T04:27:58.580Z,91.80
2023-03-17T04:30:25.544Z,91.90
2023-03-17T04:32:52.561Z,91.90
2023-03-17T04:35:22.746Z,92.00
2023-03-17T04:37:50.475Z,92.00
2023-03-17T04:40:18.751Z,92.00
2023-03-17T04:42:45.735Z,92.00
2023-03-17T04:45:15.592Z,92.10
2023-03-17T04:47:43.122Z,92.10
2023-03-17T04:50:10.976Z,92.20
2023-03-17T04:52:38.126Z,92.20
2023-03-17T04:55:08.326Z,92.30
2023-03-17T04:57:36.720Z,92.40
2023-03-17T05:00:06.355Z,92.50
2023-03-17T05:02:33.297Z,92.50
2023-03-17T05:05:00.503Z,92.60
2023-03-17T05:07:27.534Z,92.70
2023-03-17T05:09:54.548Z,92.70
2023-03-17T05:12:21.528Z,92.70
2023-03-17T05:14:48.678Z,92.70
2023-03-17T05:17:15.629Z,92.80
2023-03-17T05:19:43.144Z,92.80
2023-03-17T05:22:10.535Z,92.70
2023-03-17T05:24:37.465Z,92.70
2023-03-17T05:27:04.585Z,92.70
2023-03-17T05:29:31.633Z,92.80
2023-03-17T05:31:58.529Z,92.80
2023-03-17T05:34:25.839Z,92.80
2023-03-17T05:36:53.079Z,92.70
2023-03-17T05:39:20.044Z,92.70
2023-03-17T05:41:47.229Z,92.70
2023-03-17T05:44:14.584Z,92.70
2023-03-17T05:46:42.109Z,92.70
2023-03-17T05:49:09.066Z,92.70
2023-03-17T05:51:37.065Z,92.60
2023-03-17T05:54:04.618Z,92.50
2023-03-17T05:56:33.849Z,92.40
2023-03-17T05:59:02.048Z,92.40
2023-03-17T06:01:29.718Z,92.40
2023-03-17T06:03:57.273Z,92.10
2023-03-17T06:06:24.732Z,92.10
2023-03-17T06:08:51.808Z,92.10
2023-03-17T06:11:20.737Z,92.10
2023-03-17T06:13:47.895Z,92.10
2023-03-17T06:16:15.168Z,91.90
2023-03-17T06:18:42.269Z,92.00
2023-03-17T06:21:09.215Z,91.80
2023-03-17T06:23:36.708Z,91.90
2023-03-17T06:26:04.029Z,91.70
2023-03-17T06:28:31.335Z,91.50
2023-03-17T06:30:58.623Z,90.90
2023-03-17T06:33:26.151Z,90.40
2023-03-17T06:35:53.532Z,90.30
2023-03-17T06:38:20.964Z,90.30
2023-03-17T06:40:48.073Z,90.40
2023-03-17T06:43:15.114Z,90.60
2023-03-17T06:45:42.199Z,90.50
2023-03-17T06:48:09.358Z,90.40
2023-03-17T06:50:36.466Z,90.60
2023-03-17T06:53:03.482Z,90.70
2023-03-17T06:55:32.008Z,90.90
2023-03-17T06:57:59.332Z,90.90
2023-03-17T07:00:27.615Z,91.00
2023-03-17T07:02:54.661Z,90.80
2023-03-17T07:05:22.849Z,90.40
2023-03-17T07:07:50.208Z,90.30
2023-03-17T07:10:18.129Z,90.30
2023-03-17T07:12:45.781Z,90.30
2023-03-17T07:15:13.010Z,90.20
2023-03-17T07:17:40.038Z,90.40
2023-03-17T07:20:07.621Z,90.60
2023-03-17T07:22:34.731Z,90.50
2023-03-17T07:25:01.865Z,90.50
2023-03-17T07:27:29.310Z,90.50
2023-03-17T07:29:56.942Z,90.50
2023-03-17T07:32:24.750Z,90.30
2023-03-17T07:34:51.816Z,90.10
2023-03-17T07:37:19.502Z,89.70
2023-03-17T07:39:47.418Z,89.70
2023-03-17T07:42:15.746Z,88.20
2023-03-17T07:44:43.464Z,88.00
2023-03-17T07:47:13.506Z,88.00
2023-03-17T07:49:42.435Z,86.70
2023-03-17T07:52:10.882Z,84.80
2023-03-17T07:54:38.259Z,83.50
2023-03-17T07:57:06.488Z,82.20
2023-03-17T07:59:34.044Z,78.30
2023-03-17T08:02:01.803Z,76.00
2023-03-17T08:04:29.416Z,75.30
2023-03-17T08:06:57.577Z,76.10
2023-03-17T08:09:24.847Z,76.00
2023-03-17T08:11:51.965Z,76.70
2023-03-17T08:14:19.409Z,77.00
2023-03-17T08:16:46.486Z,77.40
2023-03-17T08:19:13.493Z,76.80
2023-03-17T08:21:40.497Z,77.00
2023-03-17T08:24:08.216Z,77.30
2023-03-17T08:26:35.368Z,77.70
2023-03-17T08:29:02.355Z,78.30
2023-03-17T08:31:29.467Z,78.70
2023-03-17T08:33:57.404Z,78.90
2023-03-17T08:36:24.745Z,79.30
2023-03-17T08:38:51.967Z,79.60
2023-03-17T08:41:22.909Z,80.10
2023-03-17T08:43:51.712Z,80.50
2023-03-17T08:46:26.135Z,80.70
2023-03-17T08:48:56.485Z,80.60
2023-03-17T08:51:26.651Z,80.40
2023-03-17T08:53:55.025Z,80.60
2023-03-17T08:56:22.906Z,80.00
2023-03-17T08:58:50.947Z,79.50
2023-03-17T09:01:20.935Z,79.10
2023-03-17T09:03:48.634Z,78.70
2023-03-17T09:06:15.709Z,78.40
2023-03-17T09:08:49.828Z,77.50
2023-03-17T09:11:18.131Z,76.50
2023-03-17T09:13:46.662Z,75.40
2023-03-17T09:16:16.421Z,76.00
2023-03-17T09:18:44.063Z,74.30
2023-03-17T09:21:13.769Z,73.00
2023-03-17T09:23:41.717Z,70.50
2023-03-17T09:26:09.130Z,67.70
2023-03-17T09:28:36.251Z,64.90
2023-03-17T09:31:06.350Z,63.60
2023-03-17T09:33:33.669Z,63.30
2023-03-17T09:36:00.761Z,63.70
2023-03-17T09:38:28.420Z,64.10
2023-03-17T09:41:18.547Z,62.30
2023-03-17T09:43:54.264Z,60.90
2023-03-17T09:46:42.835Z,61.70
2023-03-17T09:49:17.538Z,61.30
2023-03-17T09:51:46.465Z,60.40
2023-03-17T09:54:29.607Z,59.50
2023-03-17T09:57:09.916Z,57.60
2023-03-17T09:59:47.519Z,58.60
2023-03-17T10:02:30.316Z,58.70
2023-03-17T10:04:58.226Z,58.50
2023-03-17T10:07:51.306Z,58.70
2023-03-17T10:10:49.671Z,55.90
2023-03-17T10:13:22.861Z,56.10
2023-03-17T10:15:59.216Z,56.80
2023-03-17T10:18:30.550Z,56.30
2023-03-17T10:21:01.703Z,56.30
2023-03-17T10:23:32.519Z,56.10
2023-03-17T10:26:08.269Z,56.60
2023-03-17T10:28:38.756Z,56.60
2023-03-17T10:31:17.972Z,56.60
2023-03-17T10:33:49.249Z,55.50
2023-03-17T10:36:17.972Z,55.60
2023-03-17T10:38:54.279Z,55.50
2023-03-17T10:41:22.143Z,54.40
2023-03-17T10:43:53.748Z,53.10
2023-03-17T10:46:24.447Z,51.60
2023-03-17T10:48:55.344Z,50.50
2023-03-17T10:51:46.360Z,49.40
2023-03-17T10:54:18.840Z,47.90
2023-03-17T10:56:49.210Z,47.70
2023-03-17T10:59:28.697Z,46.80
2023-03-17T11:02:00.733Z,45.20
2023-03-17T11:04:37.422Z,45.80
2023-03-17T11:07:20.418Z,45.10
2023-03-17T11:09:51.646Z,43.90
2023-03-17T11:12:27.911Z,43.90
2023-03-17T11:14:59.720Z,44.10
2023-03-17T11:17:49.974Z,45.40
2023-03-17T11:20:33.074Z,45.10
2023-03-17T11:23:12.474Z,45.20
2023-03-17T11:25:43.417Z,46.30
2023-03-17T11:28:22.744Z,47.20
2023-03-17T11:30:57.660Z,45.20
2023-03-17T11:33:51.467Z,45.30
2023-03-17T11:36:50.766Z,44.80
2023-03-17T11:39:26.127Z,45.50
2023-03-17T11:42:32.142Z,45.50
2023-03-17T11:45:14.710Z,43.90
2023-03-17T11:48:21.430Z,44.60
2023-03-17T11:51:16.220Z,42.40
2023-03-17T11:54:14.476Z,42.20
2023-03-17T11:56:57.010Z,42.20
2023-03-17T11:59:33.108Z,43.40
2023-03-17T12:02:39.502Z,42.50
2023-03-17T12:05:11.311Z,42.40
2023-03-17T12:07:54.859Z,42.60
2023-03-17T12:10:28.785Z,42.00
2023-03-17T12:12:58.116Z,41.70
2023-03-17T12:16:07.401Z,42.30
2023-03-17T12:18:48.715Z,43.00
2023-03-17T12:21:24.833Z,42.70
2023-03-17T12:24:02.374Z,42.30
2023-03-17T12:26:37.913Z,41.90
2023-03-17T12:29:33.448Z,42.10
2023-03-17T12:32:26.551Z,41.70
2023-03-17T12:34:59.740Z,42.50
2023-03-17T12:37:28.274Z,43.80
2023-03-17T12:40:01.657Z,43.80
2023-03-17T12:42:47.478Z,43.70
2023-03-17T12:45:33.046Z,44.10
2023-03-17T12:48:26.073Z,44.80
2023-03-17T12:51:17.958Z,45.60
2023-03-17T12:53:48.013Z,46.10
2023-03-17T12:56:26.647Z,46.20
2023-03-17T12:58:59.122Z,45.80
2023-03-17T13:01:52.084Z,45.50
2023-03-17T13:04:38.071Z,45.30
2023-03-17T13:07:05.349Z,44.80
2023-03-17T13:09:32.963Z,45.80
2023-03-17T13:12:02.312Z,47.20
2023-03-17T13:14:47.003Z,48.20
2023-03-17T13:17:17.789Z,49.10
2023-03-17T13:19:55.501Z,49.50
2023-03-17T13:22:22.370Z,50.00
2023-03-17T13:24:51.980Z,50.20
2023-03-17T13:27:34.272Z,50.60
2023-03-17T13:30:25.828Z,51.30
2023-03-17T13:32:59.630Z,52.20
2023-03-17T13:35:46.140Z,52.50
2023-03-17T13:38:46.772Z,53.60
2023-03-17T13:41:38.027Z,53.60
2023-03-17T13:44:25.296Z,54.40
2023-03-17T13:46:52.556Z,54.60
2023-03-17T13:49:19.772Z,54.70
2023-03-17T13:52:17.774Z,54.70
2023-03-17T13:54:50.692Z,54.50
2023-03-17T13:57:35.211Z,53.30
2023-03-17T14:00:45.722Z,52.00
2023-03-17T14:03:40.133Z,51.60
2023-03-17T14:06:12.004Z,52.30
2023-03-17T14:08:48.357Z,52.10
2023-03-17T14:11:27.894Z,51.60
2023-03-17T14:14:32.052Z,51.00
2023-03-17T14:17:33.372Z,50.40
2023-03-17T14:20:18.589Z,50.60
2023-03-17T14:22:48.357Z,51.30
2023-03-17T14:25:18.128Z,52.20
2023-03-17T14:27:53.115Z,52.90
2023-03-17T14:30:26.534Z,53.90
2023-03-17T14:33:26.266Z,54.50
2023-03-17T14:35:56.426Z,55.40
2023-03-17T14:38:25.544Z,55.60
2023-03-17T14:41:00.383Z,55.90
2023-03-17T14:43:27.648Z,56.20
2023-03-17T14:46:05.385Z,56.30
2023-03-17T14:48:41.033Z,56.80
2023-03-17T14:51:23.737Z,57.20
2023-03-17T14:53:52.805Z,57.30
2023-03-17T14:56:37.564Z,57.70
2023-03-17T14:59:20.531Z,58.20
2023-03-17T15:01:48.683Z,58.20
2023-03-17T15:04:23.968Z,58.20
2023-03-17T15:07:06.696Z,58.80
2023-03-17T15:09:33.654Z,59.40
2023-03-17T15:12:07.194Z,59.00
2023-03-17T15:14:38.865Z,59.50
2023-03-17T15:17:14.434Z,59.30
2023-03-17T15:19:45.608Z,59.20
2023-03-17T15:22:26.057Z,59.40
2023-03-17T15:25:19.315Z,59.70
2023-03-17T15:27:48.284Z,59.80
2023-03-17T15:30:15.767Z,59.60
2023-03-17T15:32:43.553Z,59.70
2023-03-17T15:35:14.415Z,59.90
2023-03-17T15:37:43.770Z,60.10
2023-03-17T15:40:11.709Z,60.80
2023-03-17T15:42:39.881Z,61.60
2023-03-17T15:45:07.971Z,61.00
2023-03-17T15:47:37.093Z,61.00
2023-03-17T15:50:23.959Z,61.00
2023-03-17T15:52:56.236Z,61.20
2023-03-17T15:55:26.349Z,61.10
2023-03-17T15:57:55.523Z,61.30
2023-03-17T16:00:24.959Z,61.40
2023-03-17T16:02:54.453Z,61.50
2023-03-17T16:05:33.627Z,61.90
2023-03-17T16:08:00.792Z,62.40
2023-03-17T16:10:32.526Z,62.60
2023-03-17T16:13:00.008Z,62.60
2023-03-17T16:15:31.313Z,62.80
2023-03-17T16:18:04.581Z,63.00
2023-03-17T16:20:42.838Z,63.00
2023-03-17T16:23:14.528Z,63.00
2023-03-17T16:25:41.853Z,63.10
2023-03-17T16:28:28.891Z,63.40
2023-03-17T16:30:57.559Z,63.60
2023-03-17T16:33:32.396Z,63.80
2023-03-17T16:36:01.039Z,64.00
2023-03-17T16:38:31.381Z,64.10
2023-03-17T16:41:13.355Z,64.20
2023-03-17T16:43:43.712Z,64.60
2023-03-17T16:46:12.404Z,64.60
2023-03-17T16:48:39.425Z,65.00
2023-03-17T16:51:07.097Z,65.20
2023-03-17T16:53:34.114Z,65.90
2023-03-17T16:56:01.127Z,66.50
2023-03-17T16:58:34.621Z,67.00
2023-03-17T17:01:06.475Z,67.90
2023-03-17T17:03:33.389Z,67.70
2023-03-17T17:06:00.489Z,67.90
2023-03-17T17:08:27.424Z,68.00
2023-03-17T17:10:54.448Z,68.30
2023-03-17T17:13:21.521Z,68.70
2023-03-17T17:15:48.887Z,69.30
2023-03-17T17:18:21.858Z,69.50
2023-03-17T17:20:49.431Z,69.60
2023-03-17T17:23:25.139Z,70.00
2023-03-17T17:25:53.250Z,70.40
2023-03-17T17:28:22.897Z,70.50
2023-03-17T17:30:51.607Z,70.80
2023-03-17T17:33:20.320Z,71.00
2023-03-17T17:35:48.674Z,71.20
2023-03-17T17:38:28.277Z,71.40
2023-03-17T17:40:57.383Z,71.90
2023-03-17T17:43:25.094Z,71.90
2023-03-17T17:45:53.056Z,72.00
2023-03-17T17:48:23.493Z,72.20
2023-03-17T17:50:52.629Z,72.40
2023-03-17T17:53:20.056Z,73.30
2023-03-17T17:55:48.726Z,72.90
2023-03-17T17:58:18.434Z,73.40
2023-03-17T18:00:45.931Z,73.80
2023-03-17T18:03:13.086Z,74.20
2023-03-17T18:05:40.212Z,74.30
2023-03-17T18:08:07.169Z,74.40
2023-03-17T18:10:35.008Z,74.60
2023-03-17T18:13:02.092Z,74.70
2023-03-17T18:15:29.461Z,74.80
2023-03-17T18:17:56.801Z,74.70
2023-03-17T18:20:25.110Z,74.70
2023-03-17T18:22:52.908Z,75.00
2023-03-17T18:25:20.542Z,75.60
2023-03-17T18:27:48.486Z,75.70
2023-03-17T18:30:27.424Z,75.90
2023-03-17T18:33:03.979Z,76.10
2023-03-17T18:35:31.615Z,76.20
2023-03-17T18:37:59.062Z,76.10
2023-03-17T18:40:26.667Z,76.20
2023-03-17T18:42:54.426Z,76.40
2023-03-17T18:45:21.381Z,76.70
2023-03-17T18:47:48.316Z,77.20
2023-03-17T18:50:16.495Z,79.10
2023-03-17T18:52:44.868Z,80.90
2023-03-17T18:55:13.689Z,82.80
2023-03-17T18:57:44.358Z,84.90
2023-03-17T19:00:13.952Z,86.90
2023-03-17T19:02:40.962Z,89.60
2023-03-17T19:05:08.624Z,90.70
2023-03-17T19:07:35.865Z,91.50
2023-03-17T19:10:04.688Z,92.10
2023-03-17T19:12:32.001Z,92.70
2023-03-17T19:14:59.253Z,93.30
2023-03-17T19:17:26.220Z,93.80
2023-03-17T19:19:53.220Z,94.00
2023-03-17T19:22:20.230Z,94.80
2023-03-17T19:24:50.188Z,95.00
2023-03-17T19:27:18.101Z,95.20
2023-03-17T19:29:45.528Z,95.50
2023-03-17T19:32:12.602Z,96.10
2023-03-17T19:34:39.687Z,96.60
2023-03-17T19:37:06.568Z,97.20
2023-03-17T19:39:34.071Z,97.80
2023-03-17T19:42:01.477Z,99.00
2023-03-17T19:44:28.608Z,99.90
2023-03-17T19:46:55.882Z,99.90
2023-03-17T19:49:22.919Z,99.90
2023-03-17T19:51:50.311Z,99.90
2023-03-17T19:54:18.728Z,99.90
2023-03-17T19:56:45.925Z,99.90
2023-03-17T19:59:14.734Z,99.90
2023-03-17T20:01:42.389Z,99.90
2023-03-17T20:04:11.515Z,99.90
2023-03-17T20:06:38.635Z,99.90
2023-03-17T20:09:08.795Z,99.90
2023-03-17T20:11:36.089Z,99.90
2023-03-17T20:14:03.649Z,99.90
2023-03-17T20:16:33.737Z,99.90
2023-03-17T20:19:01.640Z,99.90
2023-03-17T20:21:28.838Z,99.90
2023-03-17T20:23:56.369Z,99.90
2023-03-17T20:26:24.577Z,99.90
2023-03-17T20:28:51.845Z,99.90
2023-03-17T20:31:19.344Z,99.90
2023-03-17T20:33:46.395Z,99.90
2023-03-17T20:36:14.135Z,99.90
2023-03-17T20:38:43.730Z,99.90
2023-03-17T20:41:17.210Z,99.90
2023-03-17T20:43:46.046Z,99.90
2023-03-17T20:46:19.787Z,99.90
2023-03-17T20:48:51.598Z,99.90
2023-03-17T20:51:20.011Z,99.90
2023-03-17T20:53:50.064Z,99.90
2023-03-17T20:56:19.840Z,99.90
2023-03-17T20:58:48.461Z,99.90
2023-03-17T21:01:18.230Z,99.90
2023-03-17T21:03:47.273Z,99.90
2023-03-17T21:06:14.922Z,99.90
2023-03-17T21:08:42.514Z,99.90
2023-03-17T21:11:16.130Z,99.90
2023-03-17T21:13:44.319Z,99.90
2023-03-17T21:16:19.794Z,99.90
2023-03-17T21:18:47.564Z,99.90
2023-03-17T21:21:15.215Z,99.90
2023-03-17T21:23:42.615Z,99.90
2023-03-17T21:26:10.817Z,99.90
2023-03-17T21:28:41.219Z,99.90
2023-03-17T21:31:10.060Z,99.90
2023-03-17T21:33:37.247Z,99.90
2023-03-17T21:36:05.257Z,99.90
2023-03-17T21:38:32.745Z,99.90
2023-03-17T21:41:39.315Z,99.90
2023-03-17T21:44:07.938Z,99.90
2023-03-17T21:46:34.971Z,99.90
2023-03-17T21:49:02.295Z,99.90
2023-03-17T21:51:29.881Z,99.90
2023-03-17T21:53:57.796Z,99.90
2023-03-17T21:56:24.922Z,99.90
2023-03-17T21:58:51.964Z,99.90
2023-03-17T22:01:21.726Z,99.90
2023-03-17T22:03:49.928Z,99.90
2023-03-17T22:06:17.118Z,99.90
2023-03-17T22:08:45.725Z,99.90
2023-03-17T22:11:18.139Z,99.90
2023-03-17T22:13:46.177Z,99.90
2023-03-17T22:16:14.096Z,99.90
2023-03-17T22:18:41.651Z,99.90
2023-03-17T22:21:10.165Z,99.90
2023-03-17T22:23:41.637Z,99.90
2023-03-17T22:26:14.242Z,99.90
2023-03-17T22:28:42.281Z,99.90
2023-03-17T22:31:14.925Z,99.90
2023-03-17T22:33:44.195Z,99.90
2023-03-17T22:36:12.239Z,99.90
2023-03-17T22:38:40.408Z,99.90
2023-03-17T22:41:10.417Z,99.90
2023-03-17T22:43:37.874Z,99.90
2023-03-17T22:46:06.176Z,99.90
2023-03-17T22:48:35.940Z,99.90
2023-03-17T22:51:16.921Z,99.90
2023-03-17T22:53:44.718Z,99.90
2023-03-17T22:56:13.379Z,99.90
2023-03-17T22:58:40.573Z,99.90
2023-03-17T23:01:08.783Z,99.90
2023-03-17T23:03:36.300Z,99.90
2023-03-17T23:06:05.413Z,99.90
2023-03-17T23:08:35.312Z,99.90
2023-03-17T23:11:06.182Z,99.90
2023-03-17T23:13:33.942Z,99.90
2023-03-17T23:16:01.069Z,99.90
2023-03-17T23:18:28.845Z,99.90
2023-03-17T23:20:55.898Z,99.90
2023-03-17T23:23:22.784Z,99.90
2023-03-17T23:25:49.842Z,99.90
2023-03-17T23:28:16.771Z,99.90
2023-03-17T23:30:45.791Z,99.90
2023-03-17T23:33:14.190Z,99.90
2023-03-17T23:35:41.240Z,99.90
2023-03-17T23:38:08.873Z,99.90
2023-03-17T23:40:36.370Z,99.90
2023-03-17T23:43:05.566Z,99.90
2023-03-17T23:45:34.385Z,99.90
2023-03-17T23:48:01.722Z,99.90
2023-03-17T23:50:29.092Z,99.90
2023-03-17T23:52:56.109Z,99.90
2023-03-17T23:55:23.189Z,99.90
2023-03-17T23:57:50.763Z,99.90
